sensor_id;sensor_type;location;lat;lon;timestamp;P1;durP1;ratioP1;P2;durP2;ratioP2
64291;SDS011;50628;51.008;13.658;2024-02-23T00:02:49;0.27;;;0.23;;
64291;SDS011;50628;51.008;13.658;2024-02-23T00:07:51;1.10;;;0.20;;
64291;SDS011;50628;51.008;13.658;2024-02-23T00:12:54;0.50;;;0.13;;
64291;SDS011;50628;51.008;13.658;2024-02-23T00:17:56;0.30;;;0.30;;
64291;SDS011;50628;51.008;13.658;2024-02-23T00:22:58;0.40;;;0.20;;
64291;SDS011;50628;51.008;13.658;2024-02-23T00:28:01;0.20;;;0.10;;
64291;SDS011;50628;51.008;13.658;2024-02-23T00:33:03;0.17;;;0.17;;
64291;SDS011;50628;51.008;13.658;2024-02-23T00:38:05;0.10;;;0.10;;
64291;SDS011;50628;51.008;13.658;2024-02-23T00:43:09;1.50;;;0.20;;
64291;SDS011;50628;51.008;13.658;2024-02-23T00:48:11;0.33;;;0.20;;
64291;SDS011;50628;51.008;13.658;2024-02-23T00:53:14;0.20;;;0.10;;
64291;SDS011;50628;51.008;13.658;2024-02-23T00:58:19;0.23;;;0.20;;
64291;SDS011;50628;51.008;13.658;2024-02-23T01:03:21;0.20;;;0.10;;
64291;SDS011;50628;51.008;13.658;2024-02-23T01:08:22;0.40;;;0.27;;
64291;SDS011;50628;51.008;13.658;2024-02-23T01:13:26;0.10;;;0.10;;
64291;SDS011;50628;51.008;13.658;2024-02-23T01:18:28;0.43;;;0.10;;
64291;SDS011;50628;51.008;13.658;2024-02-23T01:23:29;0.63;;;0.20;;
64291;SDS011;50628;51.008;13.658;2024-02-23T01:28:33;0.50;;;0.20;;
64291;SDS011;50628;51.008;13.658;2024-02-23T01:33:35;0.20;;;0.20;;
64291;SDS011;50628;51.008;13.658;2024-02-23T01:38:38;0.90;;;0.30;;
64291;SDS011;50628;51.008;13.658;2024-02-23T01:43:41;1.77;;;0.10;;
64291;SDS011;50628;51.008;13.658;2024-02-23T01:48:43;0.60;;;0.17;;
64291;SDS011;50628;51.008;13.658;2024-02-23T01:53:45;0.17;;;0.17;;
64291;SDS011;50628;51.008;13.658;2024-02-23T01:58:48;3.30;;;0.40;;
64291;SDS011;50628;51.008;13.658;2024-02-23T02:03:50;1.50;;;0.40;;
64291;SDS011;50628;51.008;13.658;2024-02-23T02:08:52;0.60;;;0.40;;
64291;SDS011;50628;51.008;13.658;2024-02-23T02:13:56;1.13;;;0.37;;
64291;SDS011;50628;51.008;13.658;2024-02-23T02:18:58;3.13;;;0.50;;
64291;SDS011;50628;51.008;13.658;2024-02-23T02:23:59;0.83;;;0.37;;
64291;SDS011;50628;51.008;13.658;2024-02-23T02:29:03;0.67;;;0.30;;
64291;SDS011;50628;51.008;13.658;2024-02-23T02:34:05;7.07;;;0.93;;
64291;SDS011;50628;51.008;13.658;2024-02-23T02:39:07;1.63;;;0.20;;
64291;SDS011;50628;51.008;13.658;2024-02-23T02:44:10;0.20;;;0.13;;
64291;SDS011;50628;51.008;13.658;2024-02-23T02:49:14;1.53;;;0.30;;
64291;SDS011;50628;51.008;13.658;2024-02-23T02:54:16;0.93;;;0.40;;
64291;SDS011;50628;51.008;13.658;2024-02-23T02:59:20;0.63;;;0.30;;
64291;SDS011;50628;51.008;13.658;2024-02-23T03:04:22;1.30;;;0.50;;
64291;SDS011;50628;51.008;13.658;2024-02-23T03:09:23;1.43;;;0.70;;
64291;SDS011;50628;51.008;13.658;2024-02-23T03:14:27;4.00;;;0.70;;
64291;SDS011;50628;51.008;13.658;2024-02-23T03:19:28;3.00;;;0.30;;
64291;SDS011;50628;51.008;13.658;2024-02-23T03:24:30;0.70;;;0.40;;
64291;SDS011;50628;51.008;13.658;2024-02-23T03:29:34;0.80;;;0.20;;
64291;SDS011;50628;51.008;13.658;2024-02-23T03:34:35;0.73;;;0.20;;
64291;SDS011;50628;51.008;13.658;2024-02-23T03:39:37;0.73;;;0.20;;
64291;SDS011;50628;51.008;13.658;2024-02-23T03:44:41;0.73;;;0.30;;
64291;SDS011;50628;51.008;13.658;2024-02-23T03:49:43;1.80;;;0.50;;
64291;SDS011;50628;51.008;13.658;2024-02-23T03:54:44;0.63;;;0.30;;
64291;SDS011;50628;51.008;13.658;2024-02-23T03:59:54;2.47;;;0.30;;
64291;SDS011;50628;51.008;13.658;2024-02-23T04:04:56;2.70;;;0.60;;
64291;SDS011;50628;51.008;13.658;2024-02-23T04:09:58;2.20;;;0.20;;
64291;SDS011;50628;51.008;13.658;2024-02-23T04:15:01;0.33;;;0.20;;
64291;SDS011;50628;51.008;13.658;2024-02-23T04:20:05;3.97;;;0.30;;
64291;SDS011;50628;51.008;13.658;2024-02-23T04:25:09;0.50;;;0.23;;
64291;SDS011;50628;51.008;13.658;2024-02-23T04:30:13;0.20;;;0.20;;
64291;SDS011;50628;51.008;13.658;2024-02-23T04:35:15;0.60;;;0.30;;
64291;SDS011;50628;51.008;13.658;2024-02-23T04:40:17;1.77;;;0.20;;
64291;SDS011;50628;51.008;13.658;2024-02-23T04:45:21;0.50;;;0.10;;
64291;SDS011;50628;51.008;13.658;2024-02-23T04:50:22;3.90;;;0.40;;
64291;SDS011;50628;51.008;13.658;2024-02-23T04:55:24;0.60;;;0.37;;
64291;SDS011;50628;51.008;13.658;2024-02-23T05:00:28;0.47;;;0.20;;
64291;SDS011;50628;51.008;13.658;2024-02-23T05:05:35;2.13;;;0.40;;
64291;SDS011;50628;51.008;13.658;2024-02-23T05:10:37;1.47;;;0.40;;
64291;SDS011;50628;51.008;13.658;2024-02-23T05:15:40;1.90;;;0.37;;
64291;SDS011;50628;51.008;13.658;2024-02-23T05:20:42;0.57;;;0.30;;
64291;SDS011;50628;51.008;13.658;2024-02-23T05:25:44;1.53;;;0.50;;
64291;SDS011;50628;51.008;13.658;2024-02-23T05:30:47;2.53;;;0.30;;
64291;SDS011;50628;51.008;13.658;2024-02-23T05:35:49;1.07;;;0.30;;
64291;SDS011;50628;51.008;13.658;2024-02-23T05:40:51;1.77;;;0.30;;
64291;SDS011;50628;51.008;13.658;2024-02-23T05:45:56;3.40;;;0.87;;
64291;SDS011;50628;51.008;13.658;2024-02-23T05:50:58;2.53;;;0.40;;
64291;SDS011;50628;51.008;13.658;2024-02-23T05:56:00;1.73;;;0.40;;
64291;SDS011;50628;51.008;13.658;2024-02-23T06:01:04;1.73;;;0.30;;
64291;SDS011;50628;51.008;13.658;2024-02-23T06:06:07;1.83;;;0.50;;
64291;SDS011;50628;51.008;13.658;2024-02-23T06:11:09;1.23;;;0.37;;
64291;SDS011;50628;51.008;13.658;2024-02-23T06:16:12;3.50;;;0.40;;
64291;SDS011;50628;51.008;13.658;2024-02-23T06:21:15;1.27;;;0.27;;
64291;SDS011;50628;51.008;13.658;2024-02-23T06:26:17;4.40;;;0.50;;
64291;SDS011;50628;51.008;13.658;2024-02-23T06:31:20;3.23;;;0.70;;
64291;SDS011;50628;51.008;13.658;2024-02-23T06:36:22;0.67;;;0.20;;
64291;SDS011;50628;51.008;13.658;2024-02-23T06:41:24;3.17;;;0.30;;
64291;SDS011;50628;51.008;13.658;2024-02-23T06:46:28;2.50;;;0.50;;
64291;SDS011;50628;51.008;13.658;2024-02-23T06:51:30;7.43;;;0.30;;
64291;SDS011;50628;51.008;13.658;2024-02-23T06:56:32;2.10;;;0.40;;
64291;SDS011;50628;51.008;13.658;2024-02-23T07:01:36;2.03;;;0.40;;
64291;SDS011;50628;51.008;13.658;2024-02-23T07:06:38;1.13;;;0.40;;
64291;SDS011;50628;51.008;13.658;2024-02-23T07:11:40;3.70;;;0.90;;
64291;SDS011;50628;51.008;13.658;2024-02-23T07:16:45;4.63;;;0.40;;
64291;SDS011;50628;51.008;13.658;2024-02-23T07:21:47;5.43;;;0.40;;
64291;SDS011;50628;51.008;13.658;2024-02-23T07:26:49;2.50;;;0.43;;
64291;SDS011;50628;51.008;13.658;2024-02-23T07:31:52;1.17;;;0.33;;
64291;SDS011;50628;51.008;13.658;2024-02-23T07:36:54;2.00;;;0.50;;
64291;SDS011;50628;51.008;13.658;2024-02-23T07:41:56;2.43;;;0.63;;
64291;SDS011;50628;51.008;13.658;2024-02-23T07:46:59;2.00;;;0.50;;
64291;SDS011;50628;51.008;13.658;2024-02-23T07:52:02;4.63;;;0.40;;
64291;SDS011;50628;51.008;13.658;2024-02-23T07:57:04;2.50;;;0.43;;
64291;SDS011;50628;51.008;13.658;2024-02-23T08:02:07;1.73;;;0.27;;
64291;SDS011;50628;51.008;13.658;2024-02-23T08:07:09;2.37;;;0.80;;
64291;SDS011;50628;51.008;13.658;2024-02-23T08:12:11;3.13;;;0.30;;
64291;SDS011;50628;51.008;13.658;2024-02-23T08:17:17;0.63;;;0.23;;
64291;SDS011;50628;51.008;13.658;2024-02-23T08:22:19;0.87;;;0.20;;
64291;SDS011;50628;51.008;13.658;2024-02-23T08:27:21;1.70;;;0.40;;
64291;SDS011;50628;51.008;13.658;2024-02-23T08:32:24;2.47;;;0.60;;
64291;SDS011;50628;51.008;13.658;2024-02-23T08:37:26;3.13;;;0.60;;
64291;SDS011;50628;51.008;13.658;2024-02-23T08:42:28;2.13;;;0.30;;
64291;SDS011;50628;51.008;13.658;2024-02-23T08:47:31;2.13;;;0.30;;
64291;SDS011;50628;51.008;13.658;2024-02-23T08:52:35;2.47;;;0.40;;
64291;SDS011;50628;51.008;13.658;2024-02-23T08:57:37;2.17;;;0.47;;
64291;SDS011;50628;51.008;13.658;2024-02-23T09:02:40;1.10;;;0.30;;
64291;SDS011;50628;51.008;13.658;2024-02-23T09:07:43;2.83;;;0.30;;
64291;SDS011;50628;51.008;13.658;2024-02-23T09:12:45;4.13;;;0.33;;
64291;SDS011;50628;51.008;13.658;2024-02-23T09:17:48;6.60;;;0.97;;
64291;SDS011;50628;51.008;13.658;2024-02-23T09:22:51;4.30;;;0.50;;
64291;SDS011;50628;51.008;13.658;2024-02-23T09:27:56;2.03;;;0.30;;
64291;SDS011;50628;51.008;13.658;2024-02-23T09:32:59;0.87;;;0.30;;
64291;SDS011;50628;51.008;13.658;2024-02-23T09:38:01;2.47;;;0.73;;
64291;SDS011;50628;51.008;13.658;2024-02-23T09:43:03;4.90;;;0.40;;
64291;SDS011;50628;51.008;13.658;2024-02-23T09:48:10;4.40;;;0.30;;
64291;SDS011;50628;51.008;13.658;2024-02-23T09:53:14;7.40;;;1.23;;
64291;SDS011;50628;51.008;13.658;2024-02-23T09:58:18;0.97;;;0.43;;
64291;SDS011;50628;51.008;13.658;2024-02-23T10:03:23;0.73;;;0.40;;
64291;SDS011;50628;51.008;13.658;2024-02-23T10:08:27;2.97;;;0.30;;
64291;SDS011;50628;51.008;13.658;2024-02-23T10:13:29;1.50;;;0.50;;
64291;SDS011;50628;51.008;13.658;2024-02-23T10:18:32;3.03;;;0.70;;
64291;SDS011;50628;51.008;13.658;2024-02-23T10:23:34;0.83;;;0.40;;
64291;SDS011;50628;51.008;13.658;2024-02-23T10:28:37;4.23;;;0.40;;
64291;SDS011;50628;51.008;13.658;2024-02-23T10:33:41;1.50;;;0.40;;
64291;SDS011;50628;51.008;13.658;2024-02-23T10:38:44;6.07;;;2.73;;
64291;SDS011;50628;51.008;13.658;2024-02-23T10:43:48;2.80;;;1.40;;
64291;SDS011;50628;51.008;13.658;2024-02-23T10:48:51;2.67;;;0.50;;
64291;SDS011;50628;51.008;13.658;2024-02-23T10:53:57;1.63;;;0.30;;
64291;SDS011;50628;51.008;13.658;2024-02-23T10:58:59;5.10;;;1.10;;
64291;SDS011;50628;51.008;13.658;2024-02-23T11:04:02;4.63;;;1.77;;
64291;SDS011;50628;51.008;13.658;2024-02-23T11:09:05;2.17;;;0.50;;
64291;SDS011;50628;51.008;13.658;2024-02-23T11:14:08;0.83;;;0.30;;
64291;SDS011;50628;51.008;13.658;2024-02-23T11:19:12;1.70;;;0.23;;
64291;SDS011;50628;51.008;13.658;2024-02-23T11:24:15;1.10;;;0.30;;
64291;SDS011;50628;51.008;13.658;2024-02-23T11:29:17;1.03;;;0.20;;
64291;SDS011;50628;51.008;13.658;2024-02-23T11:34:22;1.10;;;0.20;;
64291;SDS011;50628;51.008;13.658;2024-02-23T11:39:26;1.07;;;0.30;;
64291;SDS011;50628;51.008;13.658;2024-02-23T11:44:28;0.80;;;0.40;;
64291;SDS011;50628;51.008;13.658;2024-02-23T11:49:31;3.83;;;0.80;;
64291;SDS011;50628;51.008;13.658;2024-02-23T11:54:33;3.17;;;0.80;;
64291;SDS011;50628;51.008;13.658;2024-02-23T11:59:36;1.30;;;0.40;;
64291;SDS011;50628;51.008;13.658;2024-02-23T12:04:39;0.80;;;0.40;;
64291;SDS011;50628;51.008;13.658;2024-02-23T12:09:41;1.70;;;0.40;;
64291;SDS011;50628;51.008;13.658;2024-02-23T12:14:43;2.43;;;0.40;;
64291;SDS011;50628;51.008;13.658;2024-02-23T12:19:47;0.87;;;0.20;;
64291;SDS011;50628;51.008;13.658;2024-02-23T12:24:49;1.20;;;0.30;;
64291;SDS011;50628;51.008;13.658;2024-02-23T12:29:51;0.43;;;0.37;;
64291;SDS011;50628;51.008;13.658;2024-02-23T12:34:55;1.37;;;0.47;;
64291;SDS011;50628;51.008;13.658;2024-02-23T12:39:57;1.17;;;0.40;;
64291;SDS011;50628;51.008;13.658;2024-02-23T12:44:59;1.00;;;0.30;;
64291;SDS011;50628;51.008;13.658;2024-02-23T12:50:02;3.43;;;0.93;;
64291;SDS011;50628;51.008;13.658;2024-02-23T12:55:06;2.33;;;0.30;;
64291;SDS011;50628;51.008;13.658;2024-02-23T13:00:08;1.87;;;0.40;;
64291;SDS011;50628;51.008;13.658;2024-02-23T13:05:12;4.27;;;0.90;;
64291;SDS011;50628;51.008;13.658;2024-02-23T13:10:14;2.27;;;0.40;;
64291;SDS011;50628;51.008;13.658;2024-02-23T13:15:18;2.07;;;0.33;;
64291;SDS011;50628;51.008;13.658;2024-02-23T13:20:21;1.60;;;0.47;;
64291;SDS011;50628;51.008;13.658;2024-02-23T13:25:23;2.03;;;0.40;;
64291;SDS011;50628;51.008;13.658;2024-02-23T13:30:25;0.97;;;0.30;;
64291;SDS011;50628;51.008;13.658;2024-02-23T13:35:28;1.10;;;0.23;;
64291;SDS011;50628;51.008;13.658;2024-02-23T13:40:30;1.87;;;0.60;;
64291;SDS011;50628;51.008;13.658;2024-02-23T13:45:32;2.63;;;0.30;;
64291;SDS011;50628;51.008;13.658;2024-02-23T13:50:36;0.70;;;0.30;;
64291;SDS011;50628;51.008;13.658;2024-02-23T13:55:37;2.53;;;0.30;;
64291;SDS011;50628;51.008;13.658;2024-02-23T14:00:39;1.10;;;0.37;;
64291;SDS011;50628;51.008;13.658;2024-02-23T14:05:43;2.40;;;0.40;;
64291;SDS011;50628;51.008;13.658;2024-02-23T14:10:46;2.27;;;0.40;;
64291;SDS011;50628;51.008;13.658;2024-02-23T14:15:48;3.17;;;0.50;;
64291;SDS011;50628;51.008;13.658;2024-02-23T14:20:51;3.23;;;0.20;;
64291;SDS011;50628;51.008;13.658;2024-02-23T14:25:53;2.53;;;1.00;;
64291;SDS011;50628;51.008;13.658;2024-02-23T14:30:55;1.80;;;0.67;;
64291;SDS011;50628;51.008;13.658;2024-02-23T14:35:58;1.17;;;0.37;;
64291;SDS011;50628;51.008;13.658;2024-02-23T14:41:00;3.63;;;0.50;;
64291;SDS011;50628;51.008;13.658;2024-02-23T14:46:02;0.37;;;0.30;;
64291;SDS011;50628;51.008;13.658;2024-02-23T14:51:06;2.20;;;0.50;;
64291;SDS011;50628;51.008;13.658;2024-02-23T14:56:09;3.80;;;0.57;;
64291;SDS011;50628;51.008;13.658;2024-02-23T15:01:11;0.80;;;0.30;;
64291;SDS011;50628;51.008;13.658;2024-02-23T15:06:15;2.77;;;0.30;;
64291;SDS011;50628;51.008;13.658;2024-02-23T15:11:18;1.90;;;0.30;;
64291;SDS011;50628;51.008;13.658;2024-02-23T15:16:21;1.80;;;0.50;;
64291;SDS011;50628;51.008;13.658;2024-02-23T15:21:25;2.07;;;0.50;;
64291;SDS011;50628;51.008;13.658;2024-02-23T15:26:27;1.87;;;0.30;;
64291;SDS011;50628;51.008;13.658;2024-02-23T15:31:31;1.93;;;0.43;;
64291;SDS011;50628;51.008;13.658;2024-02-23T15:36:34;2.87;;;1.10;;
64291;SDS011;50628;51.008;13.658;2024-02-23T15:41:36;4.87;;;1.87;;
64291;SDS011;50628;51.008;13.658;2024-02-23T15:46:37;2.63;;;1.30;;
64291;SDS011;50628;51.008;13.658;2024-02-23T15:51:41;4.10;;;1.50;;
64291;SDS011;50628;51.008;13.658;2024-02-23T15:56:43;4.97;;;1.13;;
64291;SDS011;50628;51.008;13.658;2024-02-23T16:01:44;7.70;;;1.70;;
64291;SDS011;50628;51.008;13.658;2024-02-23T16:06:48;5.33;;;1.70;;
64291;SDS011;50628;51.008;13.658;2024-02-23T16:11:50;5.77;;;1.77;;
64291;SDS011;50628;51.008;13.658;2024-02-23T16:16:52;5.50;;;1.93;;
64291;SDS011;50628;51.008;13.658;2024-02-23T16:21:56;6.27;;;1.83;;
64291;SDS011;50628;51.008;13.658;2024-02-23T16:26:58;1.53;;;0.90;;
64291;SDS011;50628;51.008;13.658;2024-02-23T16:31:59;4.93;;;0.70;;
64291;SDS011;50628;51.008;13.658;2024-02-23T16:37:03;2.40;;;0.83;;
64291;SDS011;50628;51.008;13.658;2024-02-23T16:42:05;1.80;;;0.80;;
64291;SDS011;50628;51.008;13.658;2024-02-23T16:47:07;3.43;;;0.90;;
64291;SDS011;50628;51.008;13.658;2024-02-23T16:52:10;3.03;;;0.90;;
64291;SDS011;50628;51.008;13.658;2024-02-23T16:57:12;6.43;;;1.30;;
64291;SDS011;50628;51.008;13.658;2024-02-23T17:02:14;5.73;;;1.50;;
64291;SDS011;50628;51.008;13.658;2024-02-23T17:07:17;6.40;;;1.40;;
64291;SDS011;50628;51.008;13.658;2024-02-23T17:12:19;3.27;;;1.40;;
64291;SDS011;50628;51.008;13.658;2024-02-23T17:17:21;9.27;;;1.83;;
64291;SDS011;50628;51.008;13.658;2024-02-23T17:22:25;4.63;;;1.70;;
64291;SDS011;50628;51.008;13.658;2024-02-23T17:27:28;6.67;;;1.43;;
64291;SDS011;50628;51.008;13.658;2024-02-23T17:32:30;5.23;;;2.00;;
64291;SDS011;50628;51.008;13.658;2024-02-23T17:37:34;7.67;;;1.70;;
64291;SDS011;50628;51.008;13.658;2024-02-23T17:42:35;7.40;;;2.23;;
64291;SDS011;50628;51.008;13.658;2024-02-23T17:47:38;7.83;;;2.60;;
64291;SDS011;50628;51.008;13.658;2024-02-23T17:52:41;7.03;;;3.23;;
64291;SDS011;50628;51.008;13.658;2024-02-23T17:57:43;11.03;;;4.23;;
64291;SDS011;50628;51.008;13.658;2024-02-23T18:02:45;5.03;;;2.70;;
64291;SDS011;50628;51.008;13.658;2024-02-23T18:07:49;7.30;;;3.00;;
64291;SDS011;50628;51.008;13.658;2024-02-23T18:12:50;9.13;;;2.90;;
64291;SDS011;50628;51.008;13.658;2024-02-23T18:17:53;5.87;;;2.73;;
64291;SDS011;50628;51.008;13.658;2024-02-23T18:22:56;7.27;;;2.63;;
64291;SDS011;50628;51.008;13.658;2024-02-23T18:27:58;14.47;;;4.00;;
64291;SDS011;50628;51.008;13.658;2024-02-23T18:33:01;12.87;;;3.90;;
64291;SDS011;50628;51.008;13.658;2024-02-23T18:38:04;16.10;;;3.93;;
64291;SDS011;50628;51.008;13.658;2024-02-23T18:43:06;8.50;;;4.07;;
64291;SDS011;50628;51.008;13.658;2024-02-23T18:48:08;9.40;;;4.83;;
64291;SDS011;50628;51.008;13.658;2024-02-23T18:53:12;26.97;;;16.37;;
64291;SDS011;50628;51.008;13.658;2024-02-23T18:58:13;12.53;;;6.70;;
64291;SDS011;50628;51.008;13.658;2024-02-23T19:03:15;5.20;;;3.07;;
64291;SDS011;50628;51.008;13.658;2024-02-23T19:08:19;6.37;;;3.03;;
64291;SDS011;50628;51.008;13.658;2024-02-23T19:13:20;13.80;;;4.60;;
64291;SDS011;50628;51.008;13.658;2024-02-23T19:18:22;9.87;;;5.20;;
64291;SDS011;50628;51.008;13.658;2024-02-23T19:23:26;14.63;;;5.97;;
64291;SDS011;50628;51.008;13.658;2024-02-23T19:28:28;13.87;;;7.30;;
64291;SDS011;50628;51.008;13.658;2024-02-23T19:33:30;15.43;;;7.53;;
64291;SDS011;50628;51.008;13.658;2024-02-23T19:38:33;17.57;;;7.60;;
64291;SDS011;50628;51.008;13.658;2024-02-23T19:43:35;14.53;;;7.33;;
64291;SDS011;50628;51.008;13.658;2024-02-23T19:48:36;12.97;;;7.50;;
64291;SDS011;50628;51.008;13.658;2024-02-23T19:53:40;17.27;;;8.40;;
64291;SDS011;50628;51.008;13.658;2024-02-23T19:58:42;10.20;;;5.43;;
64291;SDS011;50628;51.008;13.658;2024-02-23T20:03:44;46.47;;;31.43;;
64291;SDS011;50628;51.008;13.658;2024-02-23T20:08:47;12.57;;;8.00;;
64291;SDS011;50628;51.008;13.658;2024-02-23T20:13:49;35.53;;;23.60;;
64291;SDS011;50628;51.008;13.658;2024-02-23T20:18:51;18.87;;;8.63;;
64291;SDS011;50628;51.008;13.658;2024-02-23T20:23:54;12.97;;;9.30;;
64291;SDS011;50628;51.008;13.658;2024-02-23T20:28:56;12.60;;;8.87;;
64291;SDS011;50628;51.008;13.658;2024-02-23T20:33:58;20.07;;;10.43;;
64291;SDS011;50628;51.008;13.658;2024-02-23T20:39:01;13.17;;;9.23;;
64291;SDS011;50628;51.008;13.658;2024-02-23T20:44:03;10.27;;;7.40;;
64291;SDS011;50628;51.008;13.658;2024-02-23T20:49:05;10.37;;;7.40;;
64291;SDS011;50628;51.008;13.658;2024-02-23T20:54:08;13.27;;;5.90;;
64291;SDS011;50628;51.008;13.658;2024-02-23T20:59:10;9.53;;;6.03;;
64291;SDS011;50628;51.008;13.658;2024-02-23T21:04:12;10.00;;;6.00;;
64291;SDS011;50628;51.008;13.658;2024-02-23T21:09:16;8.80;;;5.50;;
64291;SDS011;50628;51.008;13.658;2024-02-23T21:14:17;13.00;;;6.30;;
64291;SDS011;50628;51.008;13.658;2024-02-23T21:19:20;16.10;;;8.83;;
64291;SDS011;50628;51.008;13.658;2024-02-23T21:24:23;14.50;;;7.93;;
64291;SDS011;50628;51.008;13.658;2024-02-23T21:29:25;15.20;;;7.87;;
64291;SDS011;50628;51.008;13.658;2024-02-23T21:34:27;15.40;;;8.90;;
64291;SDS011;50628;51.008;13.658;2024-02-23T21:39:30;13.87;;;7.40;;
64291;SDS011;50628;51.008;13.658;2024-02-23T21:44:32;10.33;;;5.73;;
64291;SDS011;50628;51.008;13.658;2024-02-23T21:49:35;12.10;;;5.73;;
64291;SDS011;50628;51.008;13.658;2024-02-23T21:54:38;10.27;;;6.47;;
64291;SDS011;50628;51.008;13.658;2024-02-23T21:59:40;12.00;;;7.27;;
64291;SDS011;50628;51.008;13.658;2024-02-23T22:04:42;12.80;;;6.97;;
64291;SDS011;50628;51.008;13.658;2024-02-23T22:09:45;13.50;;;5.80;;
64291;SDS011;50628;51.008;13.658;2024-02-23T22:14:53;8.10;;;4.33;;
64291;SDS011;50628;51.008;13.658;2024-02-23T22:19:56;7.67;;;4.80;;
64291;SDS011;50628;51.008;13.658;2024-02-23T22:24:59;13.03;;;7.50;;
64291;SDS011;50628;51.008;13.658;2024-02-23T22:30:02;26.80;;;15.03;;
64291;SDS011;50628;51.008;13.658;2024-02-23T22:35:04;10.63;;;6.00;;
64291;SDS011;50628;51.008;13.658;2024-02-23T22:40:09;9.80;;;5.27;;
64291;SDS011;50628;51.008;13.658;2024-02-23T22:45:13;8.77;;;5.37;;
64291;SDS011;50628;51.008;13.658;2024-02-23T22:50:15;9.33;;;4.87;;
64291;SDS011;50628;51.008;13.658;2024-02-23T22:55:19;12.97;;;5.23;;
64291;SDS011;50628;51.008;13.658;2024-02-23T23:00:22;11.27;;;3.47;;
64291;SDS011;50628;51.008;13.658;2024-02-23T23:05:24;5.33;;;2.30;;
64291;SDS011;50628;51.008;13.658;2024-02-23T23:10:28;6.40;;;2.20;;
64291;SDS011;50628;51.008;13.658;2024-02-23T23:15:30;5.23;;;2.20;;
64291;SDS011;50628;51.008;13.658;2024-02-23T23:20:32;4.00;;;2.20;;
64291;SDS011;50628;51.008;13.658;2024-02-23T23:25:35;4.03;;;2.23;;
64291;SDS011;50628;51.008;13.658;2024-02-23T23:30:37;7.87;;;2.50;;
64291;SDS011;50628;51.008;13.658;2024-02-23T23:35:39;5.23;;;2.67;;
64291;SDS011;50628;51.008;13.658;2024-02-23T23:40:42;6.00;;;2.27;;
64291;SDS011;50628;51.008;13.658;2024-02-23T23:45:44;5.27;;;2.80;;
64291;SDS011;50628;51.008;13.658;2024-02-23T23:50:46;4.80;;;3.00;;
64291;SDS011;50628;51.008;13.658;2024-02-23T23:55:49;4.40;;;2.10;;
